Time;durP1;ratioP1;P1;durP2;ratioP2;P2;SDS_P1;SDS_P2;PMS_P1;PMS_P2;Temp;Humidity;BMP_temperature;BMP_pressure;BME280_temperature;BME280_humidity;BME280_pressure;Samples;Min_cycle;Max_cycle;Signal;HPM_P1;HPM_P2
2023/10/01 00:02:19;;;;;;;32.08;18.77;;;;;;;15.62;100.00;102310.47;5031903;28;20033;-74
2023/10/01 00:04:45;;;;;;;28.42;17.60;;;;;;;15.58;100.00;102302.69;5039129;28;20046;-74
2023/10/01 00:07:11;;;;;;;30.30;18.42;;;;;;;15.40;100.00;102305.53;5027300;28;20124;-74
2023/10/01 00:09:37;;;;;;;33.28;18.92;;;;;;;15.24;100.00;102312.78;5031475;28;21287;-74
2023/10/01 00:12:02;;;;;;;32.15;18.88;;;;;;;15.24;100.00;102331.59;5033149;28;20029;-74
2023/10/01 00:14:28;;;;;;;26.40;17.38;;;;;;;15.18;100.00;102337.34;5031621;28;20087;-74
2023/10/01 00:16:53;;;;;;;25.38;17.90;;;;;;;15.21;100.00;102335.34;5029778;28;20087;-74
2023/10/01 00:19:19;;;;;;;26.17;17.60;;;;;;;15.19;100.00;102339.06;5028517;28;20046;-74
2023/10/01 00:21:44;;;;;;;28.13;18.15;;;;;;;15.11;100.00;102334.16;5021907;28;23690;-74
2023/10/01 00:24:10;;;;;;;27.33;15.30;;;;;;;15.20;100.00;102327.34;5020131;28;20037;-74
2023/10/01 00:26:36;;;;;;;29.08;18.65;;;;;;;15.21;100.00;102331.75;5031853;28;20792;-74
2023/10/01 00:29:02;;;;;;;28.05;17.92;;;;;;;15.17;100.00;102339.16;5022525;28;20041;-73
2023/10/01 00:31:27;;;;;;;35.85;18.95;;;;;;;15.11;100.00;102333.25;5028279;28;20034;-74
2023/10/01 00:33:53;;;;;;;29.10;17.27;;;;;;;15.03;100.00;102323.84;5032865;28;20074;-74
2023/10/01 00:36:19;;;;;;;36.53;17.30;;;;;;;14.99;100.00;102321.41;5023847;28;20217;-74
2023/10/01 00:38:45;;;;;;;32.47;18.48;;;;;;;14.99;100.00;102322.28;5051170;28;20146;-74
2023/10/01 00:41:11;;;;;;;29.35;16.42;;;;;;;15.00;100.00;102320.44;5028966;28;20041;-74
2023/10/01 00:43:36;;;;;;;29.33;17.13;;;;;;;14.93;100.00;102332.53;5031845;28;20038;-74
2023/10/01 00:46:05;;;;;;;28.52;18.35;;;;;;;14.94;100.00;102329.72;5024859;28;20037;-73
2023/10/01 00:48:32;;;;;;;25.83;15.82;;;;;;;15.04;100.00;102319.31;5029210;28;20046;-75
2023/10/01 00:51:00;;;;;;;29.67;17.48;;;;;;;15.10;100.00;102315.41;5034621;28;21070;-74
2023/10/01 00:53:27;;;;;;;30.88;16.23;;;;;;;15.09;100.00;102311.00;5022445;28;20057;-74
2023/10/01 00:55:53;;;;;;;25.77;16.30;;;;;;;15.17;100.00;102303.38;5032092;28;20044;-74
2023/10/01 00:58:19;;;;;;;31.17;16.70;;;;;;;15.13;100.00;102308.03;5031912;28;20073;-74
2023/10/01 01:00:49;;;;;;;30.05;16.67;;;;;;;15.05;100.00;102293.31;5027099;28;20891;-74
2023/10/01 01:03:22;;;;;;;29.33;17.63;;;;;;;14.97;100.00;102281.22;5031983;28;20033;-73
2023/10/01 01:08:33;;;;;;;30.40;18.30;;;;;;;14.85;100.00;102289.97;5024668;28;20115;-74
2023/10/01 01:11:03;;;;;;;26.13;16.27;;;;;;;14.76;100.00;102293.22;5031795;28;20050;-74
2023/10/01 01:13:30;;;;;;;32.90;17.70;;;;;;;14.82;100.00;102284.81;5027147;28;20044;-74
2023/10/01 01:15:57;;;;;;;26.48;16.77;;;;;;;14.85;100.00;102286.44;5026698;28;20068;-74
2023/10/01 01:18:26;;;;;;;29.00;17.85;;;;;;;14.69;100.00;102284.63;5026308;28;20041;-74
2023/10/01 01:21:04;;;;;;;24.85;16.42;;;;;;;14.67;100.00;102272.25;5023880;28;20185;-74
2023/10/01 01:23:31;;;;;;;32.97;17.38;;;;;;;14.65;100.00;102274.16;5023139;28;20107;-74
2023/10/01 01:25:56;;;;;;;29.23;17.20;;;;;;;14.58;100.00;102270.09;5030314;28;20095;-74
2023/10/01 01:28:30;;;;;;;27.05;16.77;;;;;;;14.65;100.00;102283.06;5030402;28;20048;-75
2023/10/01 01:31:08;;;;;;;26.23;17.25;;;;;;;14.60;100.00;102276.25;5027363;28;20557;-73
2023/10/01 01:33:40;;;;;;;30.42;17.05;;;;;;;14.61;100.00;102281.53;5021572;28;20045;-74
2023/10/01 01:36:10;;;;;;;32.55;18.13;;;;;;;14.56;100.00;102280.94;5014443;28;20038;-73
2023/10/01 01:38:39;;;;;;;26.63;17.30;;;;;;;14.49;100.00;102275.03;5015990;28;20049;-74
2023/10/01 01:41:06;;;;;;;32.90;17.20;;;;;;;14.52;100.00;102278.50;5011527;28;20034;-74
2023/10/01 01:43:32;;;;;;;32.15;18.42;;;;;;;14.46;100.00;102277.00;5025014;28;20040;-74
2023/10/01 01:46:04;;;;;;;29.20;18.20;;;;;;;14.51;100.00;102272.28;5031022;28;20037;-74
2023/10/01 01:48:30;;;;;;;28.58;18.02;;;;;;;14.54;100.00;102279.28;5034968;28;20045;-74
2023/10/01 01:51:00;;;;;;;29.75;19.05;;;;;;;14.54;100.00;102273.91;5031744;28;20037;-74
2023/10/01 01:53:27;;;;;;;30.23;17.70;;;;;;;14.56;100.00;102267.53;5032736;28;20092;-74
2023/10/01 01:55:56;;;;;;;35.97;18.52;;;;;;;14.61;100.00;102262.75;5033801;28;20165;-75
2023/10/01 01:58:26;;;;;;;27.67;18.20;;;;;;;14.70;100.00;102262.19;5013908;28;20117;-74
2023/10/01 02:01:07;;;;;;;27.52;18.23;;;;;;;14.66;100.00;102263.34;5021932;28;20043;-74
2023/10/01 02:03:37;;;;;;;33.40;17.47;;;;;;;14.49;100.00;102250.00;5027611;28;20042;-74
2023/10/01 02:06:07;;;;;;;32.20;18.40;;;;;;;14.49;100.00;102252.69;5031124;28;20061;-74
2023/10/01 02:11:22;;;;;;;30.85;18.63;;;;;;;14.59;100.00;102248.53;5029014;28;20037;-74
2023/10/01 02:13:51;;;;;;;31.35;17.25;;;;;;;14.49;100.00;102245.50;5040423;28;20069;-73
2023/10/01 02:19:11;;;;;;;30.63;18.55;;;;;;;14.42;100.00;102238.75;5040853;28;20037;-74
2023/10/01 02:21:43;;;;;;;;;;;;;;;14.56;100.00;102239.78;5024125;28;20026;-75
2023/10/01 02:24:13;;;;;;;29.63;17.25;;;;;;;14.62;100.00;102237.63;5032294;28;20014;-74
2023/10/01 02:26:42;;;;;;;32.38;17.73;;;;;;;14.57;100.00;102237.03;5026637;28;20061;-74
2023/10/01 02:29:14;;;;;;;29.15;18.38;;;;;;;14.66;100.00;102239.19;5027174;28;20048;-73
2023/10/01 02:31:48;;;;;;;27.08;17.27;;;;;;;14.67;100.00;102246.28;5019956;28;20041;-73
2023/10/01 02:34:15;;;;;;;29.48;18.27;;;;;;;14.73;100.00;102247.72;5034306;28;20033;-74
2023/10/01 02:36:42;;;;;;;28.85;17.15;;;;;;;14.73;100.00;102245.91;5023350;28;20561;-74
2023/10/01 02:39:20;;;;;;;29.73;18.80;;;;;;;14.87;100.00;102242.44;5027654;28;20040;-74
2023/10/01 02:44:40;;;;;;;32.30;18.38;;;;;;;14.91;100.00;102246.66;5035936;28;20791;-74
2023/10/01 02:47:16;;;;;;;29.08;18.15;;;;;;;14.97;100.00;102245.44;5061541;28;20487;-74
2023/10/01 02:49:49;;;;;;;29.50;18.38;;;;;;;15.10;100.00;102243.72;5014178;28;20042;-75
2023/10/01 02:52:32;;;;;;;31.48;18.38;;;;;;;15.04;100.00;102241.41;5025329;28;20869;-74
2023/10/01 02:55:00;;;;;;;30.88;16.67;;;;;;;15.12;100.00;102246.34;5034219;28;20071;-75
2023/10/01 02:57:26;;;;;;;30.15;18.90;;;;;;;15.17;100.00;102238.88;5027889;28;20111;-72
2023/10/01 03:02:51;;;;;;;31.70;18.05;;;;;;;15.01;100.00;102241.63;5019910;28;20034;-74
2023/10/01 03:05:41;;;;;;;31.02;18.10;;;;;;;14.89;100.00;102239.63;5022048;28;20053;-75
2023/10/01 03:08:05;;;;;;;32.47;17.33;;;;;;;15.05;100.00;102247.66;5034092;28;20048;-73
2023/10/01 03:10:32;;;;;;;24.55;15.60;;;;;;;15.12;100.00;102231.09;5028030;28;20144;-72
2023/10/01 03:13:00;;;;;;;29.52;17.38;;;;;;;15.19;100.00;102231.56;5023632;28;20108;-75
2023/10/01 03:15:28;;;;;;;29.70;17.00;;;;;;;15.22;100.00;102226.88;5029819;28;20787;-75
2023/10/01 03:17:56;;;;;;;27.60;17.08;;;;;;;15.16;100.00;102227.25;5030974;28;20036;-75
2023/10/01 03:23:10;;;;;;;27.30;16.38;;;;;;;15.08;100.00;102221.47;5025410;28;20108;-74
2023/10/01 03:25:57;;;;;;;35.28;17.98;;;;;;;14.98;100.00;102220.28;5025200;28;20038;-74
2023/10/01 03:28:25;;;;;;;32.47;17.52;;;;;;;15.08;100.00;102217.91;5025370;28;20914;-74
2023/10/01 03:31:12;;;;;;;34.05;17.58;;;;;;;14.97;100.00;102224.81;5021679;28;20041;-74
2023/10/01 03:33:40;;;;;;;34.13;17.98;;;;;;;15.02;100.00;102233.47;5031078;28;20124;-74
2023/10/01 03:36:10;;;;;;;34.53;17.63;;;;;;;15.07;100.00;102235.88;5027372;28;20057;-74
2023/10/01 03:38:39;;;;;;;33.35;17.20;;;;;;;15.01;100.00;102229.03;5017400;28;20157;-74
2023/10/01 03:41:08;;;;;;;33.60;17.13;;;;;;;15.05;100.00;102235.06;5036969;28;20901;-74
2023/10/01 03:43:35;;;;;;;31.38;18.38;;;;;;;15.00;100.00;102224.59;5026744;28;20144;-74
2023/10/01 03:46:06;;;;;;;25.67;17.00;;;;;;;15.04;100.00;102225.28;5015332;28;20029;-75
2023/10/01 03:51:21;;;;;;;28.95;15.95;;;;;;;15.02;100.00;102230.75;5030032;28;20202;-74
2023/10/01 03:53:59;;;;;;;29.42;16.85;;;;;;;15.03;100.00;102226.25;5025003;28;20042;-74
2023/10/01 03:56:29;;;;;;;26.33;16.52;;;;;;;15.05;100.00;102223.47;5019284;28;20029;-74
2023/10/01 03:58:55;;;;;;;25.08;14.95;;;;;;;14.94;100.00;102224.97;5029265;28;20038;-74
2023/10/01 04:01:26;;;;;;;24.23;13.95;;;;;;;14.98;100.00;102228.34;5022126;28;20046;-75
2023/10/01 04:03:51;;;;;;;29.92;14.27;;;;;;;15.04;100.00;102214.53;5030087;28;20119;-74
2023/10/01 04:06:21;;;;;;;24.73;14.57;;;;;;;15.10;100.00;102222.22;5023258;28;20068;-74
2023/10/01 04:08:47;;;;;;;23.75;13.77;;;;;;;15.03;100.00;102227.13;5023627;28;20048;-75
2023/10/01 04:11:15;;;;;;;24.77;13.38;;;;;;;14.99;100.00;102227.38;5026506;28;20104;-74
2023/10/01 04:13:41;;;;;;;26.95;13.75;;;;;;;15.02;100.00;102230.75;5020564;28;20030;-74
2023/10/01 04:16:14;;;;;;;24.75;13.65;;;;;;;15.03;100.00;102220.88;5039350;28;20033;-75
2023/10/01 04:18:42;;;;;;;27.23;13.30;;;;;;;15.02;100.00;102222.72;5032472;28;20152;-74
2023/10/01 04:23:40;;;;;;;21.88;12.15;;;;;;;15.06;100.00;102228.78;5033888;28;20985;-74
2023/10/01 04:26:08;;;;;;;19.23;12.48;;;;;;;15.00;100.00;102231.81;5026038;28;20041;-73
2023/10/01 04:28:54;;;;;;;20.23;11.80;;;;;;;15.10;100.00;102226.75;5024819;28;20170;-74
2023/10/01 04:31:42;;;;;;;21.80;12.45;;;;;;;15.13;100.00;102223.88;5030495;28;20052;-73
2023/10/01 04:34:10;;;;;;;20.92;12.52;;;;;;;15.04;100.00;102225.28;5027592;28;20038;-72
2023/10/01 04:36:38;;;;;;;26.50;13.27;;;;;;;15.08;100.00;102228.66;5027320;28;20978;-72
2023/10/01 04:39:04;;;;;;;18.35;12.30;;;;;;;15.11;100.00;102223.97;5022885;28;20140;-73
2023/10/01 04:41:29;;;;;;;22.30;13.27;;;;;;;15.10;100.00;102224.06;5016897;28;20126;-73
2023/10/01 04:44:07;;;;;;;23.73;12.30;;;;;;;15.13;100.00;102221.19;5023416;28;20037;-72
2023/10/01 04:46:40;;;;;;;25.27;13.13;;;;;;;15.14;100.00;102220.22;5031171;28;20765;-72
2023/10/01 04:49:27;;;;;;;22.52;11.63;;;;;;;15.18;100.00;102227.16;5029564;28;20072;-73
2023/10/01 04:51:58;;;;;;;21.75;11.90;;;;;;;15.08;100.00;102218.78;5028542;28;20064;-73
2023/10/01 04:54:25;;;;;;;21.50;11.97;;;;;;;15.05;100.00;102226.16;5025644;28;20946;-73
2023/10/01 04:56:51;;;;;;;21.42;11.52;;;;;;;15.05;100.00;102213.59;5030900;28;20416;-72
2023/10/01 04:59:18;;;;;;;20.50;12.13;;;;;;;15.10;100.00;102227.59;5025686;28;20597;-73
2023/10/01 05:01:44;;;;;;;20.58;12.15;;;;;;;15.01;100.00;102225.50;5021218;28;20042;-73
2023/10/01 05:04:14;;;;;;;22.08;13.18;;;;;;;15.14;100.00;102215.72;5031422;28;20041;-75
2023/10/01 05:06:43;;;;;;;29.05;12.88;;;;;;;15.11;100.00;102223.97;5027526;28;20099;-72
2023/10/01 05:09:14;;;;;;;24.38;12.95;;;;;;;15.20;100.00;102222.53;5025939;28;21134;-72
2023/10/01 05:11:40;;;;;;;23.92;11.93;;;;;;;15.18;100.00;102221.78;5030979;28;20040;-72
2023/10/01 05:14:05;;;;;;;28.02;11.88;;;;;;;15.09;100.00;102225.88;5031063;28;20051;-75
2023/10/01 05:16:38;;;;;;;24.60;12.40;;;;;;;15.10;100.00;102222.22;5029995;28;20034;-72
2023/10/01 05:19:09;;;;;;;;;;;;;;;15.07;100.00;102230.50;5034098;28;20071;-74
2023/10/01 05:21:48;;;;;;;22.67;11.93;;;;;;;15.15;100.00;102224.66;5025939;28;20047;-74
2023/10/01 05:24:34;;;;;;;21.83;11.32;;;;;;;15.16;100.00;102229.06;5025187;28;20144;-76
2023/10/01 05:27:08;;;;;;;21.58;11.65;;;;;;;15.15;100.00;102228.19;5020317;28;20061;-74
2023/10/01 05:29:34;;;;;;;24.50;11.73;;;;;;;15.05;100.00;102236.91;5028059;28;20049;-75
2023/10/01 05:32:01;;;;;;;24.27;12.70;;;;;;;15.08;100.00;102228.66;5021830;28;20034;-74
2023/10/01 05:34:28;;;;;;;24.50;12.65;;;;;;;15.14;100.00;102228.28;5030386;28;20521;-75
2023/10/01 05:37:08;;;;;;;29.35;12.95;;;;;;;15.11;100.00;102223.97;5030571;28;20990;-73
2023/10/01 05:39:55;;;;;;;22.98;11.98;;;;;;;15.00;100.00;102229.13;5030641;28;20033;-74
2023/10/01 05:42:23;;;;;;;25.55;11.98;;;;;;;15.10;100.00;102224.06;5027519;28;20050;-73
2023/10/01 05:44:50;;;;;;;29.42;12.25;;;;;;;15.02;100.00;102222.72;5026080;28;20041;-74
2023/10/01 05:47:16;;;;;;;20.30;12.07;;;;;;;15.16;100.00;102232.63;5032049;28;20961;-74
2023/10/01 05:49:49;;;;;;;20.58;11.90;;;;;;;15.15;100.00;102238.94;5033803;28;20049;-74
2023/10/01 05:52:17;;;;;;;26.17;12.93;;;;;;;15.20;100.00;102236.84;5033652;28;20092;-74
2023/10/01 05:54:52;;;;;;;22.35;11.80;;;;;;;15.22;100.00;102243.00;5034071;28;20033;-74
2023/10/01 05:57:21;;;;;;;24.38;10.80;;;;;;;15.20;100.00;102236.84;5029018;28;20054;-74
2023/10/01 05:59:56;;;;;;;23.88;11.60;;;;;;;15.22;100.00;102242.16;5024144;28;20546;-74
2023/10/01 06:05:32;;;;;;;19.33;11.05;;;;;;;15.19;100.00;102240.50;5030264;28;20115;-75
2023/10/01 06:08:13;;;;;;;27.65;11.85;;;;;;;15.25;100.00;102244.63;5027173;28;20037;-75
2023/10/01 06:10:48;;;;;;;22.70;10.82;;;;;;;15.28;100.00;102247.13;5030887;28;20037;-75
2023/10/01 06:13:17;;;;;;;20.83;11.10;;;;;;;15.26;100.00;102239.19;5031142;28;20045;-76
2023/10/01 06:15:43;;;;;;;19.85;11.30;;;;;;;15.29;100.00;102241.66;5032136;28;20042;-75
2023/10/01 06:18:08;;;;;;;20.38;10.88;;;;;;;15.27;100.00;102250.78;5027582;28;27129;-75
2023/10/01 06:20:33;;;;;;;22.33;12.52;;;;;;;15.37;100.00;102243.91;5031680;28;20029;-75
2023/10/01 06:23:02;;;;;;;18.13;10.38;;;;;;;15.39;100.00;102247.34;5033193;28;20040;-75
2023/10/01 06:25:43;;;;;;;23.38;11.93;;;;;;;15.44;100.00;102247.94;5019615;28;20049;-74
2023/10/01 06:28:09;;;;;;;19.90;11.30;;;;;;;15.41;100.00;102248.13;5034812;28;20030;-74
2023/10/01 06:30:43;;;;;;;23.70;11.75;;;;;;;15.46;100.00;102247.81;5033105;28;20041;-74
2023/10/01 06:33:24;;;;;;;23.25;11.05;;;;;;;15.44;100.00;102253.31;5015998;28;20037;-75
2023/10/01 06:38:38;;;;;;;19.92;10.55;;;;;;;15.70;100.00;102251.72;5022333;28;20052;-73
2023/10/01 06:41:06;;;;;;;24.45;11.57;;;;;;;15.62;100.00;102248.63;5022478;28;20140;-74
2023/10/01 06:43:32;;;;;;;23.65;11.30;;;;;;;15.72;100.00;102233.69;5029516;28;20063;-74
2023/10/01 06:46:02;;;;;;;25.45;13.00;;;;;;;15.79;100.00;102235.00;5026610;28;20037;-75
2023/10/01 06:48:27;;;;;;;25.58;11.63;;;;;;;15.76;100.00;102234.31;5026771;28;20041;-74
2023/10/01 06:50:54;;;;;;;28.38;11.90;;;;;;;15.92;100.00;102240.50;5031063;28;20041;-74
2023/10/01 06:53:43;;;;;;;20.52;10.75;;;;;;;15.96;100.00;102227.69;5031015;28;20042;-74
2023/10/01 06:56:05;;;;;;;20.35;10.95;;;;;;;16.04;100.00;102237.00;5028841;28;20053;-74
2023/10/01 06:58:32;;;;;;;27.90;11.80;;;;;;;16.07;100.00;102241.34;5029438;28;20509;-73
2023/10/01 07:00:59;;;;;;;22.98;11.35;;;;;;;16.07;100.00;102240.47;5027321;28;20045;-74
2023/10/01 07:03:30;;;;;;;24.35;11.98;;;;;;;16.20;100.00;102239.56;5028109;28;20038;-74
2023/10/01 07:05:57;;;;;;;21.38;11.63;;;;;;;16.23;100.00;102223.22;5034214;28;20148;-75
2023/10/01 07:08:37;;;;;;;20.48;11.50;;;;;;;16.23;100.00;102233.13;5028541;28;20585;-75
2023/10/01 07:11:11;;;;;;;22.30;11.80;;;;;;;16.48;100.00;102241.34;5029265;28;20144;-74
2023/10/01 07:13:40;;;;;;;22.52;12.65;;;;;;;16.45;100.00;102233.44;5029122;28;20045;-75
2023/10/01 07:16:07;;;;;;;21.92;11.50;;;;;;;16.50;100.00;102239.38;5026935;28;20068;-74
2023/10/01 07:18:37;;;;;;;22.30;10.80;;;;;;;16.64;100.00;102238.47;5030352;28;20029;-74
2023/10/01 07:21:09;;;;;;;21.58;11.65;;;;;;;16.69;100.00;102230.97;5022029;28;20045;-74
2023/10/01 07:23:37;;;;;;;27.23;12.77;;;;;;;17.18;100.00;102233.06;5022125;28;20030;-74
2023/10/01 07:26:12;;;;;;;20.13;11.25;;;;;;;17.51;100.00;102221.72;5025955;28;20045;-74
2023/10/01 07:28:41;;;;;;;19.95;11.20;;;;;;;17.98;100.00;102227.44;5025261;28;20053;-74
2023/10/01 07:31:07;;;;;;;25.02;12.23;;;;;;;18.18;100.00;102226.84;5031393;28;20036;-74
2023/10/01 07:33:33;;;;;;;31.60;11.88;;;;;;;18.66;98.47;102224.16;5031980;28;20814;-75
2023/10/01 07:35:59;;;;;;;23.20;11.40;;;;;;;19.28;95.39;102213.09;5028513;28;20072;-75
2023/10/01 07:38:26;;;;;;;22.17;12.55;;;;;;;19.10;92.47;102215.38;5030210;28;20033;-74
2023/10/01 07:40:58;;;;;;;23.80;12.88;;;;;;;19.83;90.19;102222.28;5029357;28;20127;-74
2023/10/01 07:43:27;;;;;;;20.33;10.73;;;;;;;20.29;86.73;102225.81;5025122;28;20033;-74
2023/10/01 07:46:02;;;;;;;18.90;10.57;;;;;;;19.77;86.33;102230.00;5040799;28;20065;-75
2023/10/01 07:48:31;;;;;;;29.42;12.73;;;;;;;18.69;93.78;102232.09;5025626;28;20045;-74
2023/10/01 07:51:02;;;;;;;19.83;11.20;;;;;;;18.27;96.54;102228.88;5028374;28;20045;-74
2023/10/01 07:53:32;;;;;;;29.15;12.57;;;;;;;18.06;99.05;102243.94;5029833;28;20985;-74
2023/10/01 07:56:02;;;;;;;23.40;12.95;;;;;;;17.99;100.00;102248.94;5024082;28;20056;-74
2023/10/01 08:01:36;;;;;;;21.02;11.68;;;;;;;17.81;100.00;102248.41;5021886;28;20044;-75
2023/10/01 08:04:06;;;;;;;21.95;11.85;;;;;;;17.84;100.00;102248.19;5024746;28;20137;-74
2023/10/01 08:06:41;;;;;;;23.25;11.70;;;;;;;17.98;100.00;102247.22;5026553;28;20041;-74
2023/10/01 08:09:11;;;;;;;23.00;11.10;;;;;;;18.02;100.00;102250.53;5025482;28;20038;-74
2023/10/01 08:11:58;;;;;;;22.02;11.23;;;;;;;17.85;100.00;102260.69;5015658;28;20061;-74
2023/10/01 08:14:26;;;;;;;27.33;12.02;;;;;;;17.97;100.00;102261.69;5025900;28;20037;-74
2023/10/01 08:16:57;;;;;;;23.08;11.85;;;;;;;18.01;100.00;102267.69;5020133;28;20067;-74
2023/10/01 08:19:41;;;;;;;20.95;12.25;;;;;;;18.21;100.00;102264.41;5025194;28;20042;-75
2023/10/01 08:22:14;;;;;;;22.90;11.70;;;;;;;18.32;100.00;102252.81;5019132;28;20044;-75
2023/10/01 08:24:45;;;;;;;18.88;10.88;;;;;;;18.33;100.00;102250.03;5021924;28;20067;-74
2023/10/01 08:27:31;;;;;;;24.13;11.98;;;;;;;18.52;100.00;102256.75;5025085;28;20037;-74
2023/10/01 08:30:18;;;;;;;25.45;11.15;;;;;;;18.49;100.00;102252.47;5021866;28;21032;-74
2023/10/01 08:32:51;;;;;;;26.88;12.45;;;;;;;18.63;100.00;102259.53;5026164;28;20576;-75
2023/10/01 08:35:34;;;;;;;24.27;11.18;;;;;;;18.79;100.00;102252.03;5018498;28;20046;-75
2023/10/01 08:38:00;;;;;;;27.85;12.55;;;;;;;18.74;100.00;102251.50;5026429;28;20037;-75
2023/10/01 08:40:27;;;;;;;26.13;13.18;;;;;;;18.94;100.00;102250.00;5027932;28;20041;-74
2023/10/01 08:42:58;;;;;;;27.35;12.77;;;;;;;18.89;100.00;102242.25;5028289;28;20568;-75
2023/10/01 08:45:37;;;;;;;26.70;12.85;;;;;;;18.90;100.00;102240.41;5027764;28;20041;-75
2023/10/01 08:48:06;;;;;;;24.15;12.85;;;;;;;18.88;100.00;102234.25;5028899;28;20030;-74
2023/10/01 08:50:36;;;;;;;27.35;12.88;;;;;;;18.78;100.00;102226.00;5025557;28;20042;-75
2023/10/01 08:53:09;;;;;;;23.10;12.35;;;;;;;19.10;100.00;102234.31;5028806;28;20983;-73
2023/10/01 08:55:39;;;;;;;27.70;13.93;;;;;;;19.23;100.00;102228.84;5024121;28;20053;-73
2023/10/01 08:58:24;;;;;;;32.85;14.15;;;;;;;19.30;100.00;102232.78;5028348;28;20049;-73
2023/10/01 09:01:12;;;;;;;29.83;13.57;;;;;;;19.17;100.00;102231.13;5026416;28;20068;-73
2023/10/01 09:03:38;;;;;;;24.60;13.70;;;;;;;19.45;100.00;102236.13;5022871;28;20045;-73
2023/10/01 09:06:04;;;;;;;27.92;13.38;;;;;;;19.39;100.00;102234.75;5037395;28;20053;-73
2023/10/01 09:08:31;;;;;;;27.50;13.77;;;;;;;19.44;100.00;102234.41;5028222;28;20053;-72
2023/10/01 09:11:10;;;;;;;26.88;13.23;;;;;;;19.70;100.00;102232.38;5024691;28;20146;-72
2023/10/01 09:14:31;;;;;;;29.60;14.27;;;;;;;19.69;100.00;102232.50;5022055;28;20048;-73
2023/10/01 09:16:42;;;;;;;26.85;13.90;;;;;;;19.76;100.00;102228.31;5017029;28;20184;-74
2023/10/01 09:21:56;;;;;;;26.73;13.93;;;;;;;19.80;100.00;102227.94;5019694;28;20034;-73
2023/10/01 09:24:34;;;;;;;27.10;13.77;;;;;;;19.68;100.00;102226.22;5025247;28;20044;-73
2023/10/01 09:27:18;;;;;;;30.92;14.18;;;;;;;19.96;100.00;102226.69;5029420;28;20044;-73
2023/10/01 09:29:44;;;;;;;26.55;12.90;;;;;;;20.03;100.00;102223.38;5026605;28;20044;-73
2023/10/01 09:32:13;;;;;;;27.10;14.23;;;;;;;19.93;100.00;102233.25;5023813;28;20124;-73
2023/10/01 09:34:53;;;;;;;33.05;13.50;;;;;;;19.96;100.00;102234.81;5015718;28;20079;-73
2023/10/01 09:37:35;;;;;;;26.63;13.13;;;;;;;20.03;100.00;102233.31;5029590;28;20080;-72
2023/10/01 09:40:54;;;;;;;29.90;14.07;;;;;;;20.11;100.00;102234.44;5033615;28;20040;-73
2023/10/01 09:42:57;;;;;;;28.42;13.88;;;;;;;20.31;100.00;102246.34;5017190;28;21640;-72
2023/10/01 09:45:37;;;;;;;29.23;13.95;;;;;;;20.49;100.00;102248.56;5022830;28;20044;-73
2023/10/01 09:48:09;;;;;;;28.00;13.77;;;;;;;20.57;100.00;102241.50;5024043;28;20083;-73
2023/10/01 09:50:42;;;;;;;26.98;13.23;;;;;;;20.60;100.00;102243.09;5033441;28;20037;-73
2023/10/01 09:53:19;;;;;;;30.05;13.80;;;;;;;20.62;100.00;102233.84;5028768;28;20041;-73
2023/10/01 09:55:49;;;;;;;25.60;12.55;;;;;;;20.66;100.00;102229.88;5031236;28;20029;-74
2023/10/01 09:58:24;;;;;;;26.38;13.35;;;;;;;20.63;99.32;102230.16;5026213;28;20095;-72
2023/10/01 10:00:53;;;;;;;24.17;12.25;;;;;;;20.59;100.00;102233.25;5028481;28;20033;-73
2023/10/01 10:03:19;;;;;;;27.95;13.00;;;;;;;20.55;100.00;102234.50;5020946;28;20089;-73
2023/10/01 10:05:46;;;;;;;26.88;12.95;;;;;;;20.60;100.00;102233.13;5040306;28;20049;-73
2023/10/01 10:08:13;;;;;;;26.30;13.68;;;;;;;20.44;100.00;102232.66;5019121;28;20142;-74
2023/10/01 10:10:52;;;;;;;26.02;11.90;;;;;;;20.72;100.00;102228.50;5019631;28;20171;-72
2023/10/01 10:13:37;;;;;;;29.23;12.73;;;;;;;20.75;100.00;102220.13;5020618;28;20046;-73
2023/10/01 10:19:12;;;;;;;31.02;12.77;;;;;;;21.23;99.86;102221.47;5026944;28;20049;-74
2023/10/01 10:22:05;;;;;;;25.52;12.95;;;;;;;21.32;98.89;102229.72;5042016;28;20034;-75
2023/10/01 10:24:37;;;;;;;26.40;12.73;;;;;;;21.36;97.58;102216.75;5033373;28;20908;-73
2023/10/01 10:27:08;;;;;;;24.58;10.90;;;;;;;21.48;97.08;102221.09;5023659;28;20033;-73
2023/10/01 10:29:46;;;;;;;23.92;12.05;;;;;;;21.55;95.24;102218.72;5020400;28;20043;-73
2023/10/01 10:32:12;;;;;;;24.52;12.05;;;;;;;21.56;95.93;102218.56;5040455;28;20929;-73
2023/10/01 10:34:47;;;;;;;28.15;13.00;;;;;;;21.51;97.84;102217.25;5021464;28;20030;-73
2023/10/01 10:38:09;;;;;;;28.15;11.98;;;;;;;21.67;98.60;102221.19;5025874;28;20034;-72
2023/10/01 10:40:27;;;;;;;26.92;12.00;;;;;;;21.48;96.66;102239.22;5022029;28;20058;-72
2023/10/01 10:42:58;;;;;;;26.00;11.82;;;;;;;21.53;96.54;102220.69;5031014;28;20049;-73
2023/10/01 10:45:31;;;;;;;26.02;12.45;;;;;;;21.56;95.08;102218.56;5033426;28;20072;-73
2023/10/01 10:48:00;;;;;;;29.90;12.55;;;;;;;21.41;96.36;102215.34;5032816;28;20087;-73
2023/10/01 10:50:44;;;;;;;27.27;12.38;;;;;;;21.48;95.33;102204.78;5024607;28;20156;-73
2023/10/01 10:53:19;;;;;;;27.98;11.43;;;;;;;21.40;94.31;102201.91;5020251;28;20042;-73
2023/10/01 10:55:53;;;;;;;20.85;11.57;;;;;;;21.59;94.62;102203.88;5022403;28;20112;-73
2023/10/01 10:58:20;;;;;;;27.30;12.68;;;;;;;21.76;94.87;102200.50;5027763;28;20030;-72
2023/10/01 11:00:48;;;;;;;34.35;13.60;;;;;;;21.78;95.85;102203.06;5035079;28;20029;-73
2023/10/01 11:03:16;;;;;;;32.40;13.60;;;;;;;21.67;95.87;102199.47;5026662;28;20033;-74
2023/10/01 11:05:52;;;;;;;26.92;11.88;;;;;;;21.73;93.31;102193.47;5033315;28;20049;-73
2023/10/01 11:08:28;;;;;;;23.45;11.30;;;;;;;21.91;94.61;102187.41;5027731;28;20209;-73
2023/10/01 11:10:54;;;;;;;26.35;12.20;;;;;;;22.18;93.78;102186.78;5034264;28;21101;-73
2023/10/01 11:13:46;;;;;;;27.17;13.07;;;;;;;21.93;94.83;102188.97;5021567;28;20026;-73
2023/10/01 11:16:15;;;;;;;27.73;11.60;;;;;;;22.18;93.20;102184.06;5030016;28;20984;-73
2023/10/01 11:18:44;;;;;;;28.52;12.35;;;;;;;22.35;96.36;102177.97;5013968;28;20041;-72
2023/10/01 11:21:20;;;;;;;25.30;12.23;;;;;;;22.49;91.94;102180.25;5034496;28;20144;-73
2023/10/01 11:23:48;;;;;;;27.25;12.75;;;;;;;22.10;91.61;102182.03;5024388;28;20152;-73
2023/10/01 11:26:26;;;;;;;27.52;12.15;;;;;;;22.19;92.83;102183.09;5025564;28;20034;-73
2023/10/01 11:29:00;;;;;;;24.30;11.73;;;;;;;22.28;95.08;102173.22;5032607;28;20053;-72
2023/10/01 11:31:31;;;;;;;24.17;11.85;;;;;;;22.32;91.73;102167.34;5032250;28;20049;-72
2023/10/01 11:34:05;;;;;;;22.73;11.05;;;;;;;22.25;90.79;102163.50;5030356;28;20042;-74
2023/10/01 11:36:38;;;;;;;24.75;10.68;;;;;;;22.38;94.92;102166.78;5036638;28;20206;-72
2023/10/01 11:39:03;;;;;;;19.85;10.10;;;;;;;22.20;91.41;102168.50;5024440;28;20033;-73
2023/10/01 11:41:40;;;;;;;23.67;10.50;;;;;;;22.27;92.50;102160.63;5033180;28;20034;-73
2023/10/01 11:44:07;;;;;;;22.15;10.55;;;;;;;22.25;91.98;102158.06;5030021;28;20083;-73
2023/10/01 11:46:57;;;;;;;18.42;9.40;;;;;;;22.37;93.80;102161.50;5028699;28;20033;-73
2023/10/01 11:49:32;;;;;;;21.30;10.07;;;;;;;22.45;93.44;102159.78;5025890;28;20046;-73
2023/10/01 11:52:05;;;;;;;22.27;10.13;;;;;;;22.59;92.86;102142.19;5031785;28;20103;-73
2023/10/01 11:54:53;;;;;;;19.10;9.63;;;;;;;22.50;91.93;102148.50;5034550;28;20145;-73
2023/10/01 11:57:22;;;;;;;19.13;9.35;;;;;;;22.34;92.74;102149.06;5030950;28;20069;-73
2023/10/01 11:59:55;;;;;;;23.58;10.63;;;;;;;22.23;91.49;102151.91;5033225;28;20037;-74
2023/10/01 12:02:33;;;;;;;22.95;10.15;;;;;;;22.56;93.15;102147.06;5034358;28;20047;-73